sensor_id;sensor_type;location;lat;lon;timestamp;P1;durP1;ratioP1;P2;durP2;ratioP2
71941;SDS011;59997;53.300;-6.260;2022-09-03T00:00:44;9.33;;;3.00;;
71941;SDS011;59997;53.300;-6.260;2022-09-03T00:03:30;9.07;;;2.97;;
71941;SDS011;59997;53.300;-6.260;2022-09-03T00:09:02;9.15;;;3.05;;
71941;SDS011;59997;53.300;-6.260;2022-09-03T00:14:16;10.27;;;3.07;;
71941;SDS011;59997;53.300;-6.260;2022-09-03T00:16:48;8.55;;;3.20;;
71941;SDS011;59997;53.300;-6.260;2022-09-03T00:19:19;10.05;;;3.28;;
71941;SDS011;59997;53.300;-6.260;2022-09-03T00:21:53;8.93;;;2.92;;
71941;SDS011;59997;53.300;-6.260;2022-09-03T00:24:24;9.07;;;3.35;;
71941;SDS011;59997;53.300;-6.260;2022-09-03T00:26:54;9.27;;;3.10;;
71941;SDS011;59997;53.300;-6.260;2022-09-03T00:29:24;8.48;;;3.15;;
71941;SDS011;59997;53.300;-6.260;2022-09-03T00:31:57;10.07;;;3.60;;
71941;SDS011;59997;53.300;-6.260;2022-09-03T00:34:30;10.65;;;3.30;;
71941;SDS011;59997;53.300;-6.260;2022-09-03T00:36:59;8.45;;;3.20;;
71941;SDS011;59997;53.300;-6.260;2022-09-03T00:39:26;9.30;;;3.27;;
71941;SDS011;59997;53.300;-6.260;2022-09-03T00:50:32;10.82;;;3.90;;
71941;SDS011;59997;53.300;-6.260;2022-09-03T00:56:29;11.43;;;3.92;;
71941;SDS011;59997;53.300;-6.260;2022-09-03T01:04:54;8.27;;;2.88;;
71941;SDS011;59997;53.300;-6.260;2022-09-03T01:28:18;10.52;;;3.78;;
71941;SDS011;59997;53.300;-6.260;2022-09-03T01:33:57;9.88;;;3.60;;
71941;SDS011;59997;53.300;-6.260;2022-09-03T01:36:47;8.73;;;3.13;;
71941;SDS011;59997;53.300;-6.260;2022-09-03T02:01:06;9.90;;;3.53;;
71941;SDS011;59997;53.300;-6.260;2022-09-03T02:03:39;8.82;;;3.50;;
71941;SDS011;59997;53.300;-6.260;2022-09-03T02:06:09;9.05;;;3.38;;
71941;SDS011;59997;53.300;-6.260;2022-09-03T02:08:36;9.48;;;3.50;;
71941;SDS011;59997;53.300;-6.260;2022-09-03T02:11:02;8.33;;;2.70;;
71941;SDS011;59997;53.300;-6.260;2022-09-03T02:13:40;9.23;;;2.75;;
71941;SDS011;59997;53.300;-6.260;2022-09-03T02:16:10;8.10;;;2.53;;
71941;SDS011;59997;53.300;-6.260;2022-09-03T02:18:48;10.23;;;2.50;;
71941;SDS011;59997;53.300;-6.260;2022-09-03T02:21:17;9.73;;;2.15;;
71941;SDS011;59997;53.300;-6.260;2022-09-03T02:23:45;8.37;;;2.30;;
71941;SDS011;59997;53.300;-6.260;2022-09-03T02:26:12;10.50;;;2.72;;
71941;SDS011;59997;53.300;-6.260;2022-09-03T02:28:42;9.48;;;2.70;;
71941;SDS011;59997;53.300;-6.260;2022-09-03T02:31:08;8.23;;;2.33;;
71941;SDS011;59997;53.300;-6.260;2022-09-03T02:33:36;8.60;;;2.27;;
71941;SDS011;59997;53.300;-6.260;2022-09-03T02:36:05;7.70;;;2.50;;
71941;SDS011;59997;53.300;-6.260;2022-09-03T02:38:32;7.60;;;2.60;;
71941;SDS011;59997;53.300;-6.260;2022-09-03T02:40:58;7.47;;;2.77;;
71941;SDS011;59997;53.300;-6.260;2022-09-03T02:46:01;8.90;;;1.80;;
71941;SDS011;59997;53.300;-6.260;2022-09-03T02:48:29;5.68;;;1.40;;
71941;SDS011;59997;53.300;-6.260;2022-09-03T02:50:54;7.13;;;1.63;;
71941;SDS011;59997;53.300;-6.260;2022-09-03T02:53:20;5.67;;;1.70;;
71941;SDS011;59997;53.300;-6.260;2022-09-03T02:55:45;11.37;;;1.97;;
71941;SDS011;59997;53.300;-6.260;2022-09-03T02:58:11;6.05;;;1.70;;
71941;SDS011;59997;53.300;-6.260;2022-09-03T03:00:38;6.75;;;1.63;;
71941;SDS011;59997;53.300;-6.260;2022-09-03T03:03:04;7.50;;;1.70;;
71941;SDS011;59997;53.300;-6.260;2022-09-03T03:05:44;7.90;;;1.70;;
71941;SDS011;59997;53.300;-6.260;2022-09-03T03:08:15;7.95;;;1.70;;
71941;SDS011;59997;53.300;-6.260;2022-09-03T03:10:43;5.88;;;1.70;;
71941;SDS011;59997;53.300;-6.260;2022-09-03T03:13:10;5.93;;;1.60;;
71941;SDS011;59997;53.300;-6.260;2022-09-03T03:15:36;7.18;;;1.90;;
71941;SDS011;59997;53.300;-6.260;2022-09-03T03:18:01;5.57;;;1.83;;
71941;SDS011;59997;53.300;-6.260;2022-09-03T03:20:27;7.00;;;2.07;;
71941;SDS011;59997;53.300;-6.260;2022-09-03T03:22:53;6.83;;;1.77;;
71941;SDS011;59997;53.300;-6.260;2022-09-03T03:25:18;7.75;;;2.10;;
71941;SDS011;59997;53.300;-6.260;2022-09-03T03:27:44;9.63;;;2.53;;
71941;SDS011;59997;53.300;-6.260;2022-09-03T03:30:09;8.47;;;2.70;;
71941;SDS011;59997;53.300;-6.260;2022-09-03T03:32:36;9.05;;;3.10;;
71941;SDS011;59997;53.300;-6.260;2022-09-03T03:35:02;8.40;;;3.38;;
71941;SDS011;59997;53.300;-6.260;2022-09-03T03:37:29;11.02;;;2.72;;
71941;SDS011;59997;53.300;-6.260;2022-09-03T03:39:55;7.40;;;2.60;;
71941;SDS011;59997;53.300;-6.260;2022-09-03T03:42:21;9.13;;;2.10;;
71941;SDS011;59997;53.300;-6.260;2022-09-03T03:44:46;6.90;;;2.13;;
71941;SDS011;59997;53.300;-6.260;2022-09-03T03:47:12;6.63;;;2.10;;
71941;SDS011;59997;53.300;-6.260;2022-09-03T03:49:40;8.00;;;2.30;;
71941;SDS011;59997;53.300;-6.260;2022-09-03T03:52:06;6.32;;;1.98;;
71941;SDS011;59997;53.300;-6.260;2022-09-03T03:54:32;6.27;;;2.10;;
71941;SDS011;59997;53.300;-6.260;2022-09-03T03:56:57;7.90;;;1.92;;
71941;SDS011;59997;53.300;-6.260;2022-09-03T03:59:23;7.73;;;2.07;;
71941;SDS011;59997;53.300;-6.260;2022-09-03T04:01:48;7.03;;;1.77;;
71941;SDS011;59997;53.300;-6.260;2022-09-03T04:04:15;5.25;;;1.25;;
71941;SDS011;59997;53.300;-6.260;2022-09-03T04:06:41;5.10;;;0.90;;
71941;SDS011;59997;53.300;-6.260;2022-09-03T04:09:07;4.55;;;0.70;;
71941;SDS011;59997;53.300;-6.260;2022-09-03T04:11:32;4.57;;;0.60;;
71941;SDS011;59997;53.300;-6.260;2022-09-03T04:13:57;4.23;;;0.60;;
71941;SDS011;59997;53.300;-6.260;2022-09-03T04:16:24;3.40;;;0.40;;
71941;SDS011;59997;53.300;-6.260;2022-09-03T04:18:51;4.30;;;0.55;;
71941;SDS011;59997;53.300;-6.260;2022-09-03T04:21:19;3.50;;;0.60;;
71941;SDS011;59997;53.300;-6.260;2022-09-03T04:23:46;4.15;;;0.65;;
71941;SDS011;59997;53.300;-6.260;2022-09-03T04:26:15;5.50;;;0.60;;
71941;SDS011;59997;53.300;-6.260;2022-09-03T04:28:42;6.03;;;0.60;;
71941;SDS011;59997;53.300;-6.260;2022-09-03T04:31:10;3.58;;;0.50;;
71941;SDS011;59997;53.300;-6.260;2022-09-03T04:33:36;4.40;;;0.70;;
71941;SDS011;59997;53.300;-6.260;2022-09-03T04:38:29;4.50;;;0.70;;
71941;SDS011;59997;53.300;-6.260;2022-09-03T04:40:56;4.10;;;0.70;;
71941;SDS011;59997;53.300;-6.260;2022-09-03T04:43:23;3.88;;;0.50;;
71941;SDS011;59997;53.300;-6.260;2022-09-03T04:45:48;3.43;;;0.50;;
71941;SDS011;59997;53.300;-6.260;2022-09-03T04:48:14;3.60;;;0.60;;
71941;SDS011;59997;53.300;-6.260;2022-09-03T04:50:39;3.67;;;0.50;;
71941;SDS011;59997;53.300;-6.260;2022-09-03T04:53:06;4.10;;;0.60;;
71941;SDS011;59997;53.300;-6.260;2022-09-03T04:55:32;2.77;;;0.40;;
71941;SDS011;59997;53.300;-6.260;2022-09-03T04:57:59;3.08;;;0.50;;
71941;SDS011;59997;53.300;-6.260;2022-09-03T05:00:25;3.17;;;0.40;;
71941;SDS011;59997;53.300;-6.260;2022-09-03T05:02:50;1.83;;;0.23;;
71941;SDS011;59997;53.300;-6.260;2022-09-03T05:05:16;3.83;;;0.50;;
71941;SDS011;59997;53.300;-6.260;2022-09-03T05:07:42;3.22;;;0.50;;
71941;SDS011;59997;53.300;-6.260;2022-09-03T05:10:09;4.15;;;0.50;;
71941;SDS011;59997;53.300;-6.260;2022-09-03T05:12:47;3.63;;;0.50;;
71941;SDS011;59997;53.300;-6.260;2022-09-03T05:15:26;3.22;;;0.40;;
71941;SDS011;59997;53.300;-6.260;2022-09-03T05:17:56;3.17;;;0.70;;
71941;SDS011;59997;53.300;-6.260;2022-09-03T05:20:26;3.80;;;0.50;;
71941;SDS011;59997;53.300;-6.260;2022-09-03T05:22:55;3.92;;;0.47;;
71941;SDS011;59997;53.300;-6.260;2022-09-03T05:25:21;4.47;;;0.60;;
71941;SDS011;59997;53.300;-6.260;2022-09-03T05:27:47;4.03;;;0.70;;
71941;SDS011;59997;53.300;-6.260;2022-09-03T05:30:13;4.50;;;0.60;;
71941;SDS011;59997;53.300;-6.260;2022-09-03T05:32:39;4.43;;;0.77;;
71941;SDS011;59997;53.300;-6.260;2022-09-03T05:35:06;3.65;;;0.50;;
71941;SDS011;59997;53.300;-6.260;2022-09-03T05:37:33;3.92;;;0.57;;
71941;SDS011;59997;53.300;-6.260;2022-09-03T05:39:58;3.50;;;0.63;;
71941;SDS011;59997;53.300;-6.260;2022-09-03T05:42:24;3.53;;;0.60;;
71941;SDS011;59997;53.300;-6.260;2022-09-03T05:44:51;3.42;;;0.50;;
71941;SDS011;59997;53.300;-6.260;2022-09-03T05:47:16;3.27;;;0.50;;
71941;SDS011;59997;53.300;-6.260;2022-09-03T05:49:42;10.07;;;2.87;;
71941;SDS011;59997;53.300;-6.260;2022-09-03T05:52:07;6.30;;;1.83;;
71941;SDS011;59997;53.300;-6.260;2022-09-03T05:54:35;6.78;;;1.98;;
71941;SDS011;59997;53.300;-6.260;2022-09-03T05:57:00;5.87;;;1.30;;
71941;SDS011;59997;53.300;-6.260;2022-09-03T05:59:26;6.95;;;1.65;;
71941;SDS011;59997;53.300;-6.260;2022-09-03T06:01:51;6.23;;;1.60;;
71941;SDS011;59997;53.300;-6.260;2022-09-03T06:04:17;6.57;;;1.90;;
71941;SDS011;59997;53.300;-6.260;2022-09-03T06:06:45;5.23;;;1.60;;
71941;SDS011;59997;53.300;-6.260;2022-09-03T06:09:12;4.70;;;1.00;;
71941;SDS011;59997;53.300;-6.260;2022-09-03T06:11:40;4.53;;;1.08;;
71941;SDS011;59997;53.300;-6.260;2022-09-03T06:14:07;4.93;;;0.93;;
71941;SDS011;59997;53.300;-6.260;2022-09-03T06:16:36;5.78;;;0.90;;
71941;SDS011;59997;53.300;-6.260;2022-09-03T06:19:03;5.23;;;0.80;;
71941;SDS011;59997;53.300;-6.260;2022-09-03T06:21:34;6.65;;;1.00;;
71941;SDS011;59997;53.300;-6.260;2022-09-03T06:24:00;5.80;;;0.88;;
71941;SDS011;59997;53.300;-6.260;2022-09-03T06:26:27;5.03;;;0.80;;
71941;SDS011;59997;53.300;-6.260;2022-09-03T06:28:52;5.40;;;0.70;;
71941;SDS011;59997;53.300;-6.260;2022-09-03T06:31:19;3.93;;;0.70;;
71941;SDS011;59997;53.300;-6.260;2022-09-03T06:33:45;4.35;;;0.70;;
71941;SDS011;59997;53.300;-6.260;2022-09-03T06:36:12;5.65;;;1.00;;
71941;SDS011;59997;53.300;-6.260;2022-09-03T06:38:40;4.30;;;0.90;;
71941;SDS011;59997;53.300;-6.260;2022-09-03T06:41:26;4.85;;;0.98;;
71941;SDS011;59997;53.300;-6.260;2022-09-03T06:43:57;5.97;;;1.30;;
71941;SDS011;59997;53.300;-6.260;2022-09-03T06:46:27;4.90;;;1.00;;
71941;SDS011;59997;53.300;-6.260;2022-09-03T06:48:53;7.00;;;1.17;;
71941;SDS011;59997;53.300;-6.260;2022-09-03T06:51:20;5.30;;;1.17;;
71941;SDS011;59997;53.300;-6.260;2022-09-03T06:53:48;5.07;;;0.73;;
71941;SDS011;59997;53.300;-6.260;2022-09-03T06:56:16;4.35;;;0.88;;
71941;SDS011;59997;53.300;-6.260;2022-09-03T06:58:45;4.35;;;0.77;;
71941;SDS011;59997;53.300;-6.260;2022-09-03T07:01:17;4.20;;;1.00;;
71941;SDS011;59997;53.300;-6.260;2022-09-03T07:03:44;4.43;;;0.97;;
71941;SDS011;59997;53.300;-6.260;2022-09-03T07:06:11;5.78;;;0.85;;
71941;SDS011;59997;53.300;-6.260;2022-09-03T07:08:38;6.57;;;1.10;;
71941;SDS011;59997;53.300;-6.260;2022-09-03T07:11:07;4.63;;;0.90;;
71941;SDS011;59997;53.300;-6.260;2022-09-03T07:13:35;5.30;;;1.15;;
71941;SDS011;59997;53.300;-6.260;2022-09-03T07:16:04;5.53;;;1.10;;
71941;SDS011;59997;53.300;-6.260;2022-09-03T07:18:34;4.97;;;1.30;;
71941;SDS011;59997;53.300;-6.260;2022-09-03T07:21:01;5.68;;;1.08;;
71941;SDS011;59997;53.300;-6.260;2022-09-03T07:23:29;5.82;;;1.10;;
71941;SDS011;59997;53.300;-6.260;2022-09-03T07:25:57;6.18;;;1.30;;
71941;SDS011;59997;53.300;-6.260;2022-09-03T07:28:24;6.83;;;1.33;;
71941;SDS011;59997;53.300;-6.260;2022-09-03T07:30:52;6.10;;;1.52;;
71941;SDS011;59997;53.300;-6.260;2022-09-03T07:33:18;5.00;;;1.10;;
71941;SDS011;59997;53.300;-6.260;2022-09-03T07:35:44;5.03;;;1.33;;
71941;SDS011;59997;53.300;-6.260;2022-09-03T07:38:10;4.72;;;1.10;;
71941;SDS011;59997;53.300;-6.260;2022-09-03T07:40:38;4.70;;;1.00;;
71941;SDS011;59997;53.300;-6.260;2022-09-03T07:43:04;5.72;;;1.08;;
71941;SDS011;59997;53.300;-6.260;2022-09-03T07:45:30;5.30;;;1.10;;
71941;SDS011;59997;53.300;-6.260;2022-09-03T07:47:57;4.93;;;1.25;;
71941;SDS011;59997;53.300;-6.260;2022-09-03T07:50:22;5.65;;;0.90;;
71941;SDS011;59997;53.300;-6.260;2022-09-03T07:52:48;4.80;;;1.20;;
71941;SDS011;59997;53.300;-6.260;2022-09-03T07:55:13;5.03;;;1.10;;
71941;SDS011;59997;53.300;-6.260;2022-09-03T07:57:39;4.70;;;0.93;;
71941;SDS011;59997;53.300;-6.260;2022-09-03T08:00:05;4.93;;;1.10;;
71941;SDS011;59997;53.300;-6.260;2022-09-03T08:02:34;5.03;;;1.10;;
71941;SDS011;59997;53.300;-6.260;2022-09-03T08:05:00;6.20;;;1.15;;
71941;SDS011;59997;53.300;-6.260;2022-09-03T08:07:27;4.73;;;0.87;;
71941;SDS011;59997;53.300;-6.260;2022-09-03T08:09:54;5.43;;;0.80;;
71941;SDS011;59997;53.300;-6.260;2022-09-03T08:12:19;4.80;;;0.63;;
71941;SDS011;59997;53.300;-6.260;2022-09-03T08:14:45;4.57;;;0.70;;
71941;SDS011;59997;53.300;-6.260;2022-09-03T08:17:10;4.22;;;0.60;;
71941;SDS011;59997;53.300;-6.260;2022-09-03T08:19:37;4.05;;;0.50;;
71941;SDS011;59997;53.300;-6.260;2022-09-03T08:22:04;3.60;;;0.50;;
71941;SDS011;59997;53.300;-6.260;2022-09-03T08:24:29;3.88;;;0.70;;
71941;SDS011;59997;53.300;-6.260;2022-09-03T08:26:55;4.37;;;0.80;;
71941;SDS011;59997;53.300;-6.260;2022-09-03T08:29:20;5.77;;;1.30;;
71941;SDS011;59997;53.300;-6.260;2022-09-03T08:31:46;8.85;;;2.10;;
71941;SDS011;59997;53.300;-6.260;2022-09-03T08:34:12;8.50;;;2.67;;
71941;SDS011;59997;53.300;-6.260;2022-09-03T08:36:38;10.95;;;4.07;;
71941;SDS011;59997;53.300;-6.260;2022-09-03T08:39:06;11.23;;;4.00;;
71941;SDS011;59997;53.300;-6.260;2022-09-03T08:45:02;8.57;;;2.13;;
71941;SDS011;59997;53.300;-6.260;2022-09-03T08:57:44;8.50;;;2.57;;
71941;SDS011;59997;53.300;-6.260;2022-09-03T09:00:12;9.73;;;2.90;;
71941;SDS011;59997;53.300;-6.260;2022-09-03T09:02:51;9.45;;;2.80;;
71941;SDS011;59997;53.300;-6.260;2022-09-03T09:08:08;11.15;;;4.20;;
71941;SDS011;59997;53.300;-6.260;2022-09-03T09:11:06;14.60;;;5.60;;
71941;SDS011;59997;53.300;-6.260;2022-09-03T09:16:41;19.20;;;6.18;;
71941;SDS011;59997;53.300;-6.260;2022-09-03T09:22:37;18.65;;;7.40;;
71941;SDS011;59997;53.300;-6.260;2022-09-03T09:25:11;19.60;;;6.73;;
71941;SDS011;59997;53.300;-6.260;2022-09-03T09:27:46;18.13;;;6.53;;
71941;SDS011;59997;53.300;-6.260;2022-09-03T09:30:20;15.50;;;6.28;;
71941;SDS011;59997;53.300;-6.260;2022-09-03T09:32:45;14.03;;;5.77;;
71941;SDS011;59997;53.300;-6.260;2022-09-03T09:35:11;15.43;;;5.43;;
71941;SDS011;59997;53.300;-6.260;2022-09-03T09:38:01;10.13;;;3.53;;
71941;SDS011;59997;53.300;-6.260;2022-09-03T09:40:28;8.27;;;2.63;;
71941;SDS011;59997;53.300;-6.260;2022-09-03T09:43:03;8.50;;;1.48;;
71941;SDS011;59997;53.300;-6.260;2022-09-03T09:45:47;6.18;;;1.25;;
71941;SDS011;59997;53.300;-6.260;2022-09-03T09:51:01;4.65;;;0.82;;
71941;SDS011;59997;53.300;-6.260;2022-09-03T09:53:38;3.47;;;0.50;;
71941;SDS011;59997;53.300;-6.260;2022-09-03T09:56:04;5.80;;;0.60;;
71941;SDS011;59997;53.300;-6.260;2022-09-03T09:58:31;4.60;;;0.80;;
71941;SDS011;59997;53.300;-6.260;2022-09-03T10:01:03;3.65;;;0.55;;
71941;SDS011;59997;53.300;-6.260;2022-09-03T10:06:25;4.17;;;0.80;;
71941;SDS011;59997;53.300;-6.260;2022-09-03T10:09:18;4.68;;;0.60;;
71941;SDS011;59997;53.300;-6.260;2022-09-03T10:11:48;4.25;;;0.80;;
71941;SDS011;59997;53.300;-6.260;2022-09-03T10:14:22;4.90;;;0.85;;
71941;SDS011;59997;53.300;-6.260;2022-09-03T10:16:57;5.35;;;1.35;;
71941;SDS011;59997;53.300;-6.260;2022-09-03T10:19:30;4.10;;;0.70;;
71941;SDS011;59997;53.300;-6.260;2022-09-03T10:22:07;4.85;;;0.80;;
71941;SDS011;59997;53.300;-6.260;2022-09-03T10:27:19;6.65;;;1.20;;
71941;SDS011;59997;53.300;-6.260;2022-09-03T10:29:47;5.97;;;1.00;;
71941;SDS011;59997;53.300;-6.260;2022-09-03T10:35:17;7.53;;;2.00;;
71941;SDS011;59997;53.300;-6.260;2022-09-03T10:40:41;7.45;;;2.78;;
71941;SDS011;59997;53.300;-6.260;2022-09-03T10:51:22;7.90;;;2.63;;
71941;SDS011;59997;53.300;-6.260;2022-09-03T10:54:17;8.70;;;2.30;;
71941;SDS011;59997;53.300;-6.260;2022-09-03T10:57:14;7.05;;;1.95;;
71941;SDS011;59997;53.300;-6.260;2022-09-03T11:00:06;6.97;;;1.90;;
71941;SDS011;59997;53.300;-6.260;2022-09-03T11:05:53;7.43;;;1.70;;
71941;SDS011;59997;53.300;-6.260;2022-09-03T11:08:31;5.70;;;1.10;;
71941;SDS011;59997;53.300;-6.260;2022-09-03T11:11:03;6.25;;;1.50;;
71941;SDS011;59997;53.300;-6.260;2022-09-03T11:16:26;4.93;;;0.85;;
71941;SDS011;59997;53.300;-6.260;2022-09-03T11:19:06;4.53;;;0.63;;
71941;SDS011;59997;53.300;-6.260;2022-09-03T11:21:35;4.25;;;0.40;;
71941;SDS011;59997;53.300;-6.260;2022-09-03T11:24:16;3.33;;;0.40;;
71941;SDS011;59997;53.300;-6.260;2022-09-03T11:26:47;4.23;;;0.57;;
71941;SDS011;59997;53.300;-6.260;2022-09-03T11:29:24;4.40;;;0.52;;
71941;SDS011;59997;53.300;-6.260;2022-09-03T11:32:20;3.97;;;0.50;;
71941;SDS011;59997;53.300;-6.260;2022-09-03T11:34:51;3.22;;;0.40;;
71941;SDS011;59997;53.300;-6.260;2022-09-03T11:42:30;3.70;;;0.40;;
71941;SDS011;59997;53.300;-6.260;2022-09-03T11:47:59;2.33;;;0.40;;
71941;SDS011;59997;53.300;-6.260;2022-09-03T11:50:26;3.20;;;0.47;;
71941;SDS011;59997;53.300;-6.260;2022-09-03T11:53:05;4.00;;;0.50;;
71941;SDS011;59997;53.300;-6.260;2022-09-03T11:55:54;3.33;;;0.30;;
71941;SDS011;59997;53.300;-6.260;2022-09-03T11:58:33;2.83;;;0.30;;
71941;SDS011;59997;53.300;-6.260;2022-09-03T12:01:01;3.63;;;0.50;;
71941;SDS011;59997;53.300;-6.260;2022-09-03T12:03:38;3.70;;;0.45;;
71941;SDS011;59997;53.300;-6.260;2022-09-03T12:19:57;3.97;;;0.70;;
71941;SDS011;59997;53.300;-6.260;2022-09-03T12:22:18;3.63;;;0.60;;
71941;SDS011;59997;53.300;-6.260;2022-09-03T12:24:46;4.10;;;0.80;;
71941;SDS011;59997;53.300;-6.260;2022-09-03T12:27:22;4.33;;;0.70;;
71941;SDS011;59997;53.300;-6.260;2022-09-03T12:29:59;4.57;;;0.80;;
71941;SDS011;59997;53.300;-6.260;2022-09-03T12:32:34;5.10;;;0.70;;
71941;SDS011;59997;53.300;-6.260;2022-09-03T12:35:16;4.22;;;0.82;;
71941;SDS011;59997;53.300;-6.260;2022-09-03T12:37:43;4.40;;;0.80;;
71941;SDS011;59997;53.300;-6.260;2022-09-03T12:40:17;3.90;;;0.87;;
71941;SDS011;59997;53.300;-6.260;2022-09-03T12:42:45;4.07;;;0.80;;
71941;SDS011;59997;53.300;-6.260;2022-09-03T12:45:11;4.95;;;0.90;;
71941;SDS011;59997;53.300;-6.260;2022-09-03T12:47:40;5.32;;;1.10;;
71941;SDS011;59997;53.300;-6.260;2022-09-03T12:50:17;6.20;;;0.60;;
71941;SDS011;59997;53.300;-6.260;2022-09-03T12:52:51;6.03;;;0.80;;
71941;SDS011;59997;53.300;-6.260;2022-09-03T12:55:35;4.55;;;1.00;;
71941;SDS011;59997;53.300;-6.260;2022-09-03T12:58:23;6.78;;;1.83;;
71941;SDS011;59997;53.300;-6.260;2022-09-03T13:01:10;6.97;;;1.55;;
71941;SDS011;59997;53.300;-6.260;2022-09-03T13:06:06;9.63;;;2.20;;
71941;SDS011;59997;53.300;-6.260;2022-09-03T13:08:40;10.97;;;2.47;;
71941;SDS011;59997;53.300;-6.260;2022-09-03T13:11:13;9.20;;;2.47;;
71941;SDS011;59997;53.300;-6.260;2022-09-03T13:13:47;10.35;;;2.58;;
71941;SDS011;59997;53.300;-6.260;2022-09-03T13:24:57;8.77;;;2.30;;
71941;SDS011;59997;53.300;-6.260;2022-09-03T13:30:14;8.85;;;2.10;;
71941;SDS011;59997;53.300;-6.260;2022-09-03T13:33:03;8.77;;;2.20;;
71941;SDS011;59997;53.300;-6.260;2022-09-03T13:35:37;7.83;;;2.07;;
71941;SDS011;59997;53.300;-6.260;2022-09-03T13:38:08;7.57;;;2.00;;
71941;SDS011;59997;53.300;-6.260;2022-09-03T13:40:55;7.45;;;1.63;;
71941;SDS011;59997;53.300;-6.260;2022-09-03T13:55:18;7.97;;;1.63;;
71941;SDS011;59997;53.300;-6.260;2022-09-03T13:58:01;9.77;;;1.88;;
71941;SDS011;59997;53.300;-6.260;2022-09-03T14:00:45;6.55;;;1.50;;
71941;SDS011;59997;53.300;-6.260;2022-09-03T14:06:01;5.13;;;1.30;;
71941;SDS011;59997;53.300;-6.260;2022-09-03T14:11:01;6.72;;;0.98;;
71941;SDS011;59997;53.300;-6.260;2022-09-03T14:22:45;7.17;;;1.20;;
71941;SDS011;59997;53.300;-6.260;2022-09-03T14:25:17;7.07;;;1.30;;
71941;SDS011;59997;53.300;-6.260;2022-09-03T14:27:44;7.88;;;1.73;;
71941;SDS011;59997;53.300;-6.260;2022-09-03T14:35:46;6.65;;;1.42;;
71941;SDS011;59997;53.300;-6.260;2022-09-03T14:38:56;8.73;;;1.73;;
71941;SDS011;59997;53.300;-6.260;2022-09-03T14:41:55;8.88;;;2.03;;
71941;SDS011;59997;53.300;-6.260;2022-09-03T15:09:39;7.32;;;1.20;;
71941;SDS011;59997;53.300;-6.260;2022-09-03T15:14:50;5.97;;;1.40;;
71941;SDS011;59997;53.300;-6.260;2022-09-03T15:17:24;10.50;;;1.50;;
71941;SDS011;59997;53.300;-6.260;2022-09-03T15:22:51;7.63;;;1.80;;
71941;SDS011;59997;53.300;-6.260;2022-09-03T15:28:23;6.50;;;1.23;;
71941;SDS011;59997;53.300;-6.260;2022-09-03T15:31:02;4.80;;;1.08;;
71941;SDS011;59997;53.300;-6.260;2022-09-03T15:33:49;6.18;;;0.98;;
71941;SDS011;59997;53.300;-6.260;2022-09-03T15:36:23;5.75;;;1.55;;
71941;SDS011;59997;53.300;-6.260;2022-09-03T15:44:16;4.05;;;0.60;;
71941;SDS011;59997;53.300;-6.260;2022-09-03T15:49:18;3.30;;;0.40;;
71941;SDS011;59997;53.300;-6.260;2022-09-03T15:54:45;2.55;;;0.30;;
71941;SDS011;59997;53.300;-6.260;2022-09-03T15:59:54;2.30;;;0.30;;
71941;SDS011;59997;53.300;-6.260;2022-09-03T16:05:20;2.87;;;0.43;;
71941;SDS011;59997;53.300;-6.260;2022-09-03T16:08:08;4.20;;;0.40;;
71941;SDS011;59997;53.300;-6.260;2022-09-03T16:10:49;4.50;;;0.30;;
71941;SDS011;59997;53.300;-6.260;2022-09-03T16:13:35;4.25;;;0.50;;
71941;SDS011;59997;53.300;-6.260;2022-09-03T16:16:29;4.55;;;0.65;;
71941;SDS011;59997;53.300;-6.260;2022-09-03T16:19:16;3.50;;;0.50;;
71941;SDS011;59997;53.300;-6.260;2022-09-03T16:21:57;4.85;;;0.68;;
71941;SDS011;59997;53.300;-6.260;2022-09-03T16:24:46;6.95;;;1.02;;
71941;SDS011;59997;53.300;-6.260;2022-09-03T16:27:40;7.93;;;0.98;;
71941;SDS011;59997;53.300;-6.260;2022-09-03T16:42:10;8.20;;;1.25;;
71941;SDS011;59997;53.300;-6.260;2022-09-03T17:14:52;16.45;;;3.13;;
71941;SDS011;59997;53.300;-6.260;2022-09-03T17:31:14;13.73;;;2.45;;
71941;SDS011;59997;53.300;-6.260;2022-09-03T17:36:17;13.63;;;2.60;;
71941;SDS011;59997;53.300;-6.260;2022-09-03T17:44:22;13.80;;;2.20;;
71941;SDS011;59997;53.300;-6.260;2022-09-03T17:52:56;9.70;;;1.33;;
71941;SDS011;59997;53.300;-6.260;2022-09-03T17:55:49;7.00;;;0.90;;
71941;SDS011;59997;53.300;-6.260;2022-09-03T17:58:54;8.93;;;1.00;;
71941;SDS011;59997;53.300;-6.260;2022-09-03T18:01:31;8.65;;;1.10;;
71941;SDS011;59997;53.300;-6.260;2022-09-03T18:05:02;4.70;;;0.70;;
71941;SDS011;59997;53.300;-6.260;2022-09-03T18:07:22;5.97;;;0.73;;
71941;SDS011;59997;53.300;-6.260;2022-09-03T18:10:03;3.88;;;0.60;;
71941;SDS011;59997;53.300;-6.260;2022-09-03T18:12:40;5.55;;;0.80;;
71941;SDS011;59997;53.300;-6.260;2022-09-03T18:20:22;7.95;;;0.95;;
71941;SDS011;59997;53.300;-6.260;2022-09-03T18:26:15;4.72;;;0.50;;
71941;SDS011;59997;53.300;-6.260;2022-09-03T18:29:06;5.47;;;0.60;;
71941;SDS011;59997;53.300;-6.260;2022-09-03T18:31:56;5.00;;;0.60;;
71941;SDS011;59997;53.300;-6.260;2022-09-03T18:34:40;7.13;;;0.63;;
71941;SDS011;59997;53.300;-6.260;2022-09-03T18:37:25;4.03;;;0.50;;
71941;SDS011;59997;53.300;-6.260;2022-09-03T18:40:13;5.45;;;0.60;;
71941;SDS011;59997;53.300;-6.260;2022-09-03T18:43:09;4.57;;;0.80;;
71941;SDS011;59997;53.300;-6.260;2022-09-03T18:46:15;4.15;;;0.50;;
71941;SDS011;59997;53.300;-6.260;2022-09-03T18:49:21;6.82;;;0.70;;
71941;SDS011;59997;53.300;-6.260;2022-09-03T18:55:46;4.72;;;1.00;;
71941;SDS011;59997;53.300;-6.260;2022-09-03T18:58:43;4.78;;;0.70;;
71941;SDS011;59997;53.300;-6.260;2022-09-03T19:01:46;5.03;;;0.70;;
71941;SDS011;59997;53.300;-6.260;2022-09-03T19:11:07;6.15;;;0.75;;
71941;SDS011;59997;53.300;-6.260;2022-09-03T19:13:50;4.68;;;0.80;;
71941;SDS011;59997;53.300;-6.260;2022-09-03T19:22:46;6.97;;;0.80;;
71941;SDS011;59997;53.300;-6.260;2022-09-03T19:25:30;4.25;;;0.70;;
71941;SDS011;59997;53.300;-6.260;2022-09-03T19:28:22;3.97;;;0.70;;
71941;SDS011;59997;53.300;-6.260;2022-09-03T19:37:22;5.27;;;0.70;;
71941;SDS011;59997;53.300;-6.260;2022-09-03T19:46:21;4.88;;;0.70;;
71941;SDS011;59997;53.300;-6.260;2022-09-03T19:55:48;4.03;;;0.68;;
71941;SDS011;59997;53.300;-6.260;2022-09-03T19:58:37;4.65;;;0.43;;
71941;SDS011;59997;53.300;-6.260;2022-09-03T20:01:28;3.38;;;0.60;;
71941;SDS011;59997;53.300;-6.260;2022-09-03T20:04:16;5.97;;;1.08;;
71941;SDS011;59997;53.300;-6.260;2022-09-03T20:07:05;3.17;;;0.50;;
71941;SDS011;59997;53.300;-6.260;2022-09-03T20:09:52;3.58;;;0.60;;
71941;SDS011;59997;53.300;-6.260;2022-09-03T20:12:42;3.80;;;0.68;;
71941;SDS011;59997;53.300;-6.260;2022-09-03T20:15:11;4.75;;;0.80;;
71941;SDS011;59997;53.300;-6.260;2022-09-03T20:17:40;4.33;;;0.80;;
71941;SDS011;59997;53.300;-6.260;2022-09-03T20:23:29;4.80;;;0.93;;
71941;SDS011;59997;53.300;-6.260;2022-09-03T20:31:54;4.40;;;0.80;;
71941;SDS011;59997;53.300;-6.260;2022-09-03T20:40:33;5.25;;;1.05;;
71941;SDS011;59997;53.300;-6.260;2022-09-03T20:52:17;4.75;;;1.05;;
71941;SDS011;59997;53.300;-6.260;2022-09-03T20:57:28;6.30;;;1.30;;
71941;SDS011;59997;53.300;-6.260;2022-09-03T21:00:15;6.10;;;1.00;;
71941;SDS011;59997;53.300;-6.260;2022-09-03T21:05:42;5.43;;;1.10;;
71941;SDS011;59997;53.300;-6.260;2022-09-03T21:11:10;5.57;;;1.30;;
71941;SDS011;59997;53.300;-6.260;2022-09-03T21:21:52;6.53;;;1.45;;
71941;SDS011;59997;53.300;-6.260;2022-09-03T21:24:26;5.85;;;1.00;;
71941;SDS011;59997;53.300;-6.260;2022-09-03T21:27:04;5.82;;;1.15;;
71941;SDS011;59997;53.300;-6.260;2022-09-03T21:29:38;5.30;;;1.30;;
71941;SDS011;59997;53.300;-6.260;2022-09-03T21:34:49;5.28;;;1.30;;
71941;SDS011;59997;53.300;-6.260;2022-09-03T21:37:30;6.93;;;1.08;;
71941;SDS011;59997;53.300;-6.260;2022-09-03T21:39:59;5.70;;;1.10;;
71941;SDS011;59997;53.300;-6.260;2022-09-03T21:45:21;5.43;;;1.02;;
71941;SDS011;59997;53.300;-6.260;2022-09-03T21:47:54;6.28;;;1.15;;
71941;SDS011;59997;53.300;-6.260;2022-09-03T21:50:25;6.03;;;1.30;;